sensor_id;sensor_type;location;lat;lon;timestamp;P1;durP1;ratioP1;P2;durP2;ratioP2
21297;SDS011;10808;48.010;11.326;2024-03-08T00:02:14;35.65;;;20.60;;
21297;SDS011;10808;48.010;11.326;2024-03-08T00:04:40;35.22;;;19.88;;
21297;SDS011;10808;48.010;11.326;2024-03-08T00:07:06;32.60;;;18.80;;
21297;SDS011;10808;48.010;11.326;2024-03-08T00:09:32;32.50;;;19.38;;
21297;SDS011;10808;48.010;11.326;2024-03-08T00:11:58;33.92;;;20.50;;
21297;SDS011;10808;48.010;11.326;2024-03-08T00:14:24;34.45;;;20.23;;
21297;SDS011;10808;48.010;11.326;2024-03-08T00:16:50;33.75;;;19.13;;
21297;SDS011;10808;48.010;11.326;2024-03-08T00:19:18;33.00;;;19.25;;
21297;SDS011;10808;48.010;11.326;2024-03-08T00:21:44;33.10;;;18.88;;
21297;SDS011;10808;48.010;11.326;2024-03-08T00:24:10;31.40;;;18.92;;
21297;SDS011;10808;48.010;11.326;2024-03-08T00:26:37;33.83;;;19.15;;
21297;SDS011;10808;48.010;11.326;2024-03-08T00:29:03;33.63;;;19.05;;
21297;SDS011;10808;48.010;11.326;2024-03-08T00:31:29;30.77;;;18.67;;
21297;SDS011;10808;48.010;11.326;2024-03-08T00:33:56;31.30;;;18.50;;
21297;SDS011;10808;48.010;11.326;2024-03-08T00:36:23;31.98;;;18.33;;
21297;SDS011;10808;48.010;11.326;2024-03-08T00:38:50;30.95;;;18.70;;
21297;SDS011;10808;48.010;11.326;2024-03-08T00:41:16;32.05;;;18.90;;
21297;SDS011;10808;48.010;11.326;2024-03-08T00:43:42;33.15;;;18.83;;
21297;SDS011;10808;48.010;11.326;2024-03-08T00:46:08;31.75;;;19.02;;
21297;SDS011;10808;48.010;11.326;2024-03-08T00:48:34;31.17;;;18.42;;
21297;SDS011;10808;48.010;11.326;2024-03-08T00:51:02;34.63;;;19.33;;
21297;SDS011;10808;48.010;11.326;2024-03-08T00:53:28;32.60;;;18.55;;
21297;SDS011;10808;48.010;11.326;2024-03-08T00:55:54;33.17;;;18.83;;
21297;SDS011;10808;48.010;11.326;2024-03-08T00:58:20;32.73;;;19.20;;
21297;SDS011;10808;48.010;11.326;2024-03-08T01:00:46;31.67;;;18.58;;
21297;SDS011;10808;48.010;11.326;2024-03-08T01:03:12;32.60;;;19.30;;
21297;SDS011;10808;48.010;11.326;2024-03-08T01:05:38;34.95;;;19.95;;
21297;SDS011;10808;48.010;11.326;2024-03-08T01:08:04;34.13;;;19.27;;
21297;SDS011;10808;48.010;11.326;2024-03-08T01:10:31;33.05;;;18.83;;
21297;SDS011;10808;48.010;11.326;2024-03-08T01:12:57;34.38;;;18.90;;
21297;SDS011;10808;48.010;11.326;2024-03-08T01:15:24;34.90;;;18.80;;
21297;SDS011;10808;48.010;11.326;2024-03-08T01:17:51;29.95;;;17.63;;
21297;SDS011;10808;48.010;11.326;2024-03-08T01:20:17;31.02;;;18.70;;
21297;SDS011;10808;48.010;11.326;2024-03-08T01:22:43;30.70;;;18.15;;
21297;SDS011;10808;48.010;11.326;2024-03-08T01:25:09;29.35;;;17.42;;
21297;SDS011;10808;48.010;11.326;2024-03-08T01:27:35;33.90;;;19.30;;
21297;SDS011;10808;48.010;11.326;2024-03-08T01:30:02;33.40;;;18.80;;
21297;SDS011;10808;48.010;11.326;2024-03-08T01:32:29;33.13;;;18.55;;
21297;SDS011;10808;48.010;11.326;2024-03-08T01:34:55;32.67;;;18.47;;
21297;SDS011;10808;48.010;11.326;2024-03-08T01:37:21;29.70;;;17.48;;
21297;SDS011;10808;48.010;11.326;2024-03-08T01:39:47;32.10;;;18.40;;
21297;SDS011;10808;48.010;11.326;2024-03-08T01:42:13;32.57;;;19.17;;
21297;SDS011;10808;48.010;11.326;2024-03-08T01:44:40;29.38;;;17.52;;
21297;SDS011;10808;48.010;11.326;2024-03-08T01:47:06;29.70;;;18.75;;
21297;SDS011;10808;48.010;11.326;2024-03-08T01:49:33;30.75;;;18.27;;
21297;SDS011;10808;48.010;11.326;2024-03-08T01:51:59;29.35;;;17.52;;
21297;SDS011;10808;48.010;11.326;2024-03-08T01:54:26;29.80;;;17.67;;
21297;SDS011;10808;48.010;11.326;2024-03-08T01:56:52;29.70;;;18.17;;
21297;SDS011;10808;48.010;11.326;2024-03-08T01:59:18;30.42;;;18.80;;
21297;SDS011;10808;48.010;11.326;2024-03-08T02:01:45;31.13;;;18.77;;
21297;SDS011;10808;48.010;11.326;2024-03-08T02:04:11;30.85;;;17.80;;
21297;SDS011;10808;48.010;11.326;2024-03-08T02:06:37;31.50;;;17.67;;
21297;SDS011;10808;48.010;11.326;2024-03-08T02:09:04;31.08;;;18.17;;
21297;SDS011;10808;48.010;11.326;2024-03-08T02:11:35;30.85;;;17.73;;
21297;SDS011;10808;48.010;11.326;2024-03-08T02:14:01;31.40;;;18.00;;
21297;SDS011;10808;48.010;11.326;2024-03-08T02:16:28;30.85;;;17.70;;
21297;SDS011;10808;48.010;11.326;2024-03-08T02:18:54;34.45;;;19.25;;
21297;SDS011;10808;48.010;11.326;2024-03-08T02:21:20;34.13;;;18.67;;
21297;SDS011;10808;48.010;11.326;2024-03-08T02:23:46;29.55;;;18.02;;
21297;SDS011;10808;48.010;11.326;2024-03-08T02:26:12;31.60;;;18.15;;
21297;SDS011;10808;48.010;11.326;2024-03-08T02:28:38;32.20;;;18.00;;
21297;SDS011;10808;48.010;11.326;2024-03-08T02:31:05;31.33;;;18.60;;
21297;SDS011;10808;48.010;11.326;2024-03-08T02:33:33;31.67;;;18.38;;
21297;SDS011;10808;48.010;11.326;2024-03-08T02:35:59;30.90;;;18.35;;
21297;SDS011;10808;48.010;11.326;2024-03-08T02:38:25;30.48;;;18.17;;
21297;SDS011;10808;48.010;11.326;2024-03-08T02:40:52;30.48;;;17.95;;
21297;SDS011;10808;48.010;11.326;2024-03-08T02:43:19;31.55;;;18.40;;
21297;SDS011;10808;48.010;11.326;2024-03-08T02:45:47;32.17;;;18.83;;
21297;SDS011;10808;48.010;11.326;2024-03-08T02:48:14;29.88;;;17.67;;
21297;SDS011;10808;48.010;11.326;2024-03-08T02:50:41;28.47;;;17.50;;
21297;SDS011;10808;48.010;11.326;2024-03-08T02:53:11;29.15;;;17.80;;
21297;SDS011;10808;48.010;11.326;2024-03-08T02:55:38;29.13;;;17.43;;
21297;SDS011;10808;48.010;11.326;2024-03-08T02:58:06;29.58;;;17.65;;
21297;SDS011;10808;48.010;11.326;2024-03-08T03:00:36;33.78;;;18.60;;
21297;SDS011;10808;48.010;11.326;2024-03-08T03:03:02;32.28;;;18.73;;
21297;SDS011;10808;48.010;11.326;2024-03-08T03:05:29;33.20;;;19.27;;
21297;SDS011;10808;48.010;11.326;2024-03-08T03:07:55;30.95;;;17.73;;
21297;SDS011;10808;48.010;11.326;2024-03-08T03:10:23;33.70;;;19.13;;
21297;SDS011;10808;48.010;11.326;2024-03-08T03:12:49;34.90;;;19.15;;
21297;SDS011;10808;48.010;11.326;2024-03-08T03:15:16;35.42;;;19.58;;
21297;SDS011;10808;48.010;11.326;2024-03-08T03:17:46;31.67;;;18.70;;
21297;SDS011;10808;48.010;11.326;2024-03-08T03:20:13;34.00;;;19.35;;
21297;SDS011;10808;48.010;11.326;2024-03-08T03:22:40;32.15;;;19.33;;
21297;SDS011;10808;48.010;11.326;2024-03-08T03:25:07;36.13;;;19.98;;
21297;SDS011;10808;48.010;11.326;2024-03-08T03:27:34;35.13;;;20.08;;
21297;SDS011;10808;48.010;11.326;2024-03-08T03:30:02;34.80;;;19.80;;
21297;SDS011;10808;48.010;11.326;2024-03-08T03:32:49;36.30;;;20.33;;
21297;SDS011;10808;48.010;11.326;2024-03-08T03:35:19;34.58;;;20.05;;
21297;SDS011;10808;48.010;11.326;2024-03-08T03:37:46;36.03;;;19.95;;
21297;SDS011;10808;48.010;11.326;2024-03-08T03:40:32;35.70;;;20.10;;
21297;SDS011;10808;48.010;11.326;2024-03-08T03:42:59;33.08;;;19.73;;
21297;SDS011;10808;48.010;11.326;2024-03-08T03:45:25;34.47;;;20.05;;
21297;SDS011;10808;48.010;11.326;2024-03-08T03:47:51;35.40;;;20.85;;
21297;SDS011;10808;48.010;11.326;2024-03-08T03:50:18;34.28;;;19.15;;
21297;SDS011;10808;48.010;11.326;2024-03-08T03:52:45;34.53;;;20.27;;
21297;SDS011;10808;48.010;11.326;2024-03-08T03:55:12;32.63;;;19.88;;
21297;SDS011;10808;48.010;11.326;2024-03-08T03:57:39;36.67;;;20.10;;
21297;SDS011;10808;48.010;11.326;2024-03-08T04:00:05;35.23;;;19.93;;
21297;SDS011;10808;48.010;11.326;2024-03-08T04:02:36;36.08;;;20.70;;
21297;SDS011;10808;48.010;11.326;2024-03-08T04:05:04;35.45;;;20.52;;
21297;SDS011;10808;48.010;11.326;2024-03-08T04:07:35;35.47;;;20.70;;
21297;SDS011;10808;48.010;11.326;2024-03-08T04:10:02;39.85;;;21.45;;
21297;SDS011;10808;48.010;11.326;2024-03-08T04:12:29;34.85;;;20.50;;
21297;SDS011;10808;48.010;11.326;2024-03-08T04:14:55;35.65;;;20.80;;
21297;SDS011;10808;48.010;11.326;2024-03-08T04:17:21;35.40;;;20.75;;
21297;SDS011;10808;48.010;11.326;2024-03-08T04:19:49;35.55;;;20.60;;
21297;SDS011;10808;48.010;11.326;2024-03-08T04:22:15;35.33;;;20.15;;
21297;SDS011;10808;48.010;11.326;2024-03-08T04:24:43;36.50;;;20.23;;
21297;SDS011;10808;48.010;11.326;2024-03-08T04:27:10;37.03;;;21.60;;
21297;SDS011;10808;48.010;11.326;2024-03-08T04:29:36;39.30;;;22.40;;
21297;SDS011;10808;48.010;11.326;2024-03-08T04:32:03;37.45;;;21.20;;
21297;SDS011;10808;48.010;11.326;2024-03-08T04:34:30;35.60;;;21.20;;
21297;SDS011;10808;48.010;11.326;2024-03-08T04:36:57;41.25;;;21.30;;
21297;SDS011;10808;48.010;11.326;2024-03-08T04:39:23;37.08;;;21.20;;
21297;SDS011;10808;48.010;11.326;2024-03-08T04:41:50;36.80;;;21.23;;
21297;SDS011;10808;48.010;11.326;2024-03-08T04:44:16;41.97;;;21.75;;
21297;SDS011;10808;48.010;11.326;2024-03-08T04:46:43;38.17;;;20.90;;
21297;SDS011;10808;48.010;11.326;2024-03-08T04:49:09;37.75;;;21.20;;
21297;SDS011;10808;48.010;11.326;2024-03-08T04:51:37;41.40;;;22.63;;
21297;SDS011;10808;48.010;11.326;2024-03-08T04:54:03;38.22;;;21.65;;
21297;SDS011;10808;48.010;11.326;2024-03-08T04:56:30;40.87;;;23.23;;
21297;SDS011;10808;48.010;11.326;2024-03-08T04:58:57;41.47;;;21.97;;
21297;SDS011;10808;48.010;11.326;2024-03-08T05:01:23;37.50;;;21.90;;
21297;SDS011;10808;48.010;11.326;2024-03-08T05:03:49;41.30;;;22.98;;
21297;SDS011;10808;48.010;11.326;2024-03-08T05:06:15;39.10;;;22.38;;
21297;SDS011;10808;48.010;11.326;2024-03-08T05:08:42;41.63;;;23.23;;
21297;SDS011;10808;48.010;11.326;2024-03-08T05:11:08;43.87;;;23.40;;
21297;SDS011;10808;48.010;11.326;2024-03-08T05:13:35;40.35;;;22.42;;
21297;SDS011;10808;48.010;11.326;2024-03-08T05:16:01;42.22;;;22.48;;
21297;SDS011;10808;48.010;11.326;2024-03-08T05:18:27;40.87;;;22.40;;
21297;SDS011;10808;48.010;11.326;2024-03-08T05:20:57;38.85;;;22.00;;
21297;SDS011;10808;48.010;11.326;2024-03-08T05:23:23;40.47;;;22.10;;
21297;SDS011;10808;48.010;11.326;2024-03-08T05:25:49;38.92;;;21.35;;
21297;SDS011;10808;48.010;11.326;2024-03-08T05:28:15;39.95;;;22.17;;
21297;SDS011;10808;48.010;11.326;2024-03-08T05:30:41;40.25;;;21.48;;
21297;SDS011;10808;48.010;11.326;2024-03-08T05:33:07;41.57;;;22.27;;
21297;SDS011;10808;48.010;11.326;2024-03-08T05:35:36;39.70;;;21.30;;
21297;SDS011;10808;48.010;11.326;2024-03-08T05:38:02;41.88;;;22.73;;
21297;SDS011;10808;48.010;11.326;2024-03-08T05:40:29;36.72;;;20.83;;
21297;SDS011;10808;48.010;11.326;2024-03-08T05:42:57;37.83;;;20.95;;
21297;SDS011;10808;48.010;11.326;2024-03-08T05:45:24;38.33;;;20.92;;
21297;SDS011;10808;48.010;11.326;2024-03-08T05:47:51;37.58;;;21.48;;
21297;SDS011;10808;48.010;11.326;2024-03-08T05:50:18;39.20;;;21.60;;
21297;SDS011;10808;48.010;11.326;2024-03-08T05:52:45;40.17;;;22.08;;
21297;SDS011;10808;48.010;11.326;2024-03-08T05:55:13;40.58;;;21.80;;
21297;SDS011;10808;48.010;11.326;2024-03-08T05:57:40;37.63;;;21.38;;
21297;SDS011;10808;48.010;11.326;2024-03-08T06:00:08;37.40;;;21.23;;
21297;SDS011;10808;48.010;11.326;2024-03-08T06:02:37;36.47;;;21.23;;
21297;SDS011;10808;48.010;11.326;2024-03-08T06:05:08;40.53;;;21.45;;
21297;SDS011;10808;48.010;11.326;2024-03-08T06:07:35;42.88;;;22.15;;
21297;SDS011;10808;48.010;11.326;2024-03-08T06:10:01;39.33;;;22.23;;
21297;SDS011;10808;48.010;11.326;2024-03-08T06:12:28;39.03;;;21.15;;
21297;SDS011;10808;48.010;11.326;2024-03-08T06:14:58;37.63;;;20.33;;
21297;SDS011;10808;48.010;11.326;2024-03-08T06:17:24;38.67;;;20.70;;
21297;SDS011;10808;48.010;11.326;2024-03-08T06:19:51;36.25;;;20.85;;
21297;SDS011;10808;48.010;11.326;2024-03-08T06:22:17;37.58;;;21.52;;
21297;SDS011;10808;48.010;11.326;2024-03-08T06:24:45;39.17;;;20.95;;
21297;SDS011;10808;48.010;11.326;2024-03-08T06:27:11;39.03;;;20.83;;
21297;SDS011;10808;48.010;11.326;2024-03-08T06:29:37;37.22;;;20.42;;
21297;SDS011;10808;48.010;11.326;2024-03-08T06:32:03;36.85;;;20.67;;
21297;SDS011;10808;48.010;11.326;2024-03-08T06:34:29;37.92;;;20.95;;
21297;SDS011;10808;48.010;11.326;2024-03-08T06:37:00;38.17;;;21.13;;
21297;SDS011;10808;48.010;11.326;2024-03-08T06:39:27;37.53;;;20.65;;
21297;SDS011;10808;48.010;11.326;2024-03-08T06:41:57;38.03;;;21.80;;
21297;SDS011;10808;48.010;11.326;2024-03-08T06:44:23;38.53;;;21.63;;
21297;SDS011;10808;48.010;11.326;2024-03-08T06:46:49;37.15;;;21.15;;
21297;SDS011;10808;48.010;11.326;2024-03-08T06:49:15;37.20;;;20.75;;
21297;SDS011;10808;48.010;11.326;2024-03-08T06:51:41;38.97;;;20.60;;
21297;SDS011;10808;48.010;11.326;2024-03-08T06:54:07;37.93;;;20.03;;
21297;SDS011;10808;48.010;11.326;2024-03-08T06:56:34;35.05;;;19.48;;
21297;SDS011;10808;48.010;11.326;2024-03-08T06:59:00;36.67;;;20.00;;
21297;SDS011;10808;48.010;11.326;2024-03-08T07:01:28;35.65;;;20.25;;
21297;SDS011;10808;48.010;11.326;2024-03-08T07:03:57;36.22;;;20.67;;
21297;SDS011;10808;48.010;11.326;2024-03-08T07:06:23;38.00;;;21.50;;
21297;SDS011;10808;48.010;11.326;2024-03-08T07:08:50;38.85;;;21.30;;
21297;SDS011;10808;48.010;11.326;2024-03-08T07:11:16;36.55;;;20.63;;
21297;SDS011;10808;48.010;11.326;2024-03-08T07:13:46;37.63;;;20.48;;
21297;SDS011;10808;48.010;11.326;2024-03-08T07:16:12;37.13;;;20.90;;
21297;SDS011;10808;48.010;11.326;2024-03-08T07:18:38;38.33;;;21.88;;
21297;SDS011;10808;48.010;11.326;2024-03-08T07:21:09;36.33;;;21.08;;
21297;SDS011;10808;48.010;11.326;2024-03-08T07:23:38;38.47;;;20.87;;
21297;SDS011;10808;48.010;11.326;2024-03-08T07:26:27;36.90;;;21.70;;
21297;SDS011;10808;48.010;11.326;2024-03-08T07:28:53;39.67;;;20.98;;
21297;SDS011;10808;48.010;11.326;2024-03-08T07:31:20;34.67;;;20.60;;
21297;SDS011;10808;48.010;11.326;2024-03-08T07:34:03;38.10;;;20.60;;
21297;SDS011;10808;48.010;11.326;2024-03-08T07:36:35;33.95;;;20.42;;
21297;SDS011;10808;48.010;11.326;2024-03-08T07:39:02;36.03;;;20.13;;
21297;SDS011;10808;48.010;11.326;2024-03-08T07:41:30;32.47;;;18.98;;
21297;SDS011;10808;48.010;11.326;2024-03-08T07:43:56;34.05;;;19.10;;
21297;SDS011;10808;48.010;11.326;2024-03-08T07:46:23;33.45;;;19.30;;
21297;SDS011;10808;48.010;11.326;2024-03-08T07:48:49;33.33;;;19.35;;
21297;SDS011;10808;48.010;11.326;2024-03-08T07:51:17;31.75;;;19.15;;
21297;SDS011;10808;48.010;11.326;2024-03-08T07:53:43;32.85;;;19.08;;
21297;SDS011;10808;48.010;11.326;2024-03-08T07:56:10;34.95;;;20.17;;
21297;SDS011;10808;48.010;11.326;2024-03-08T07:58:38;29.73;;;18.50;;
21297;SDS011;10808;48.010;11.326;2024-03-08T08:01:06;32.27;;;19.17;;
21297;SDS011;10808;48.010;11.326;2024-03-08T08:03:32;32.92;;;18.88;;
21297;SDS011;10808;48.010;11.326;2024-03-08T08:05:58;32.13;;;18.80;;
21297;SDS011;10808;48.010;11.326;2024-03-08T08:08:24;30.88;;;18.45;;
21297;SDS011;10808;48.010;11.326;2024-03-08T08:10:51;27.90;;;17.53;;
21297;SDS011;10808;48.010;11.326;2024-03-08T08:13:17;31.17;;;18.67;;
21297;SDS011;10808;48.010;11.326;2024-03-08T08:15:43;31.92;;;18.67;;
21297;SDS011;10808;48.010;11.326;2024-03-08T08:18:09;31.42;;;19.85;;
21297;SDS011;10808;48.010;11.326;2024-03-08T08:20:35;32.40;;;19.10;;
21297;SDS011;10808;48.010;11.326;2024-03-08T08:23:02;30.10;;;18.67;;
21297;SDS011;10808;48.010;11.326;2024-03-08T08:25:31;30.83;;;18.13;;
21297;SDS011;10808;48.010;11.326;2024-03-08T08:27:59;29.83;;;18.35;;
21297;SDS011;10808;48.010;11.326;2024-03-08T08:30:25;32.47;;;19.27;;
21297;SDS011;10808;48.010;11.326;2024-03-08T08:32:51;26.23;;;16.77;;
21297;SDS011;10808;48.010;11.326;2024-03-08T08:35:17;28.85;;;18.15;;
21297;SDS011;10808;48.010;11.326;2024-03-08T08:37:45;27.20;;;16.83;;
21297;SDS011;10808;48.010;11.326;2024-03-08T08:40:11;27.35;;;17.10;;
21297;SDS011;10808;48.010;11.326;2024-03-08T08:42:40;27.42;;;17.05;;
21297;SDS011;10808;48.010;11.326;2024-03-08T08:45:06;26.02;;;16.48;;
21297;SDS011;10808;48.010;11.326;2024-03-08T08:47:36;30.47;;;17.30;;
21297;SDS011;10808;48.010;11.326;2024-03-08T08:50:02;26.23;;;16.98;;
21297;SDS011;10808;48.010;11.326;2024-03-08T08:52:33;29.48;;;17.75;;
21297;SDS011;10808;48.010;11.326;2024-03-08T08:55:00;29.75;;;18.60;;
21297;SDS011;10808;48.010;11.326;2024-03-08T08:57:26;28.17;;;17.77;;
21297;SDS011;10808;48.010;11.326;2024-03-08T08:59:53;29.23;;;18.15;;
21297;SDS011;10808;48.010;11.326;2024-03-08T09:02:20;27.52;;;17.60;;
21297;SDS011;10808;48.010;11.326;2024-03-08T09:04:46;32.30;;;21.90;;
21297;SDS011;10808;48.010;11.326;2024-03-08T09:07:13;27.70;;;19.02;;
21297;SDS011;10808;48.010;11.326;2024-03-08T09:09:41;32.00;;;21.52;;
21297;SDS011;10808;48.010;11.326;2024-03-08T09:12:08;29.90;;;19.63;;
21297;SDS011;10808;48.010;11.326;2024-03-08T09:14:35;24.35;;;16.48;;
21297;SDS011;10808;48.010;11.326;2024-03-08T09:17:01;28.50;;;17.10;;
21297;SDS011;10808;48.010;11.326;2024-03-08T09:19:27;25.63;;;17.33;;
21297;SDS011;10808;48.010;11.326;2024-03-08T09:21:53;26.00;;;16.70;;
21297;SDS011;10808;48.010;11.326;2024-03-08T09:24:19;25.70;;;16.52;;
21297;SDS011;10808;48.010;11.326;2024-03-08T09:26:46;27.38;;;18.50;;
21297;SDS011;10808;48.010;11.326;2024-03-08T09:29:12;24.08;;;16.17;;
21297;SDS011;10808;48.010;11.326;2024-03-08T09:31:38;78.22;;;44.92;;
21297;SDS011;10808;48.010;11.326;2024-03-08T09:34:05;31.27;;;20.60;;
21297;SDS011;10808;48.010;11.326;2024-03-08T09:36:34;36.05;;;22.25;;
21297;SDS011;10808;48.010;11.326;2024-03-08T09:39:00;34.67;;;23.02;;
21297;SDS011;10808;48.010;11.326;2024-03-08T09:41:26;26.23;;;17.38;;
21297;SDS011;10808;48.010;11.326;2024-03-08T09:43:52;29.60;;;19.60;;
21297;SDS011;10808;48.010;11.326;2024-03-08T09:46:19;21.08;;;14.95;;
21297;SDS011;10808;48.010;11.326;2024-03-08T09:48:45;22.50;;;15.15;;
21297;SDS011;10808;48.010;11.326;2024-03-08T09:51:12;21.50;;;14.75;;
21297;SDS011;10808;48.010;11.326;2024-03-08T09:53:41;20.90;;;14.43;;
21297;SDS011;10808;48.010;11.326;2024-03-08T09:56:09;22.20;;;14.47;;
21297;SDS011;10808;48.010;11.326;2024-03-08T09:58:37;27.80;;;18.02;;
21297;SDS011;10808;48.010;11.326;2024-03-08T10:01:16;20.42;;;14.30;;
21297;SDS011;10808;48.010;11.326;2024-03-08T10:03:43;20.20;;;13.85;;
21297;SDS011;10808;48.010;11.326;2024-03-08T10:06:13;19.08;;;13.95;;
21297;SDS011;10808;48.010;11.326;2024-03-08T10:08:39;20.73;;;13.73;;
21297;SDS011;10808;48.010;11.326;2024-03-08T10:11:05;17.15;;;12.73;;
21297;SDS011;10808;48.010;11.326;2024-03-08T10:13:32;20.27;;;13.45;;
21297;SDS011;10808;48.010;11.326;2024-03-08T10:15:59;19.45;;;13.43;;
21297;SDS011;10808;48.010;11.326;2024-03-08T10:18:26;17.10;;;12.70;;
21297;SDS011;10808;48.010;11.326;2024-03-08T10:21:05;17.75;;;12.77;;
21297;SDS011;10808;48.010;11.326;2024-03-08T10:23:32;18.10;;;13.02;;
21297;SDS011;10808;48.010;11.326;2024-03-08T10:26:14;18.40;;;13.15;;
21297;SDS011;10808;48.010;11.326;2024-03-08T10:28:42;17.95;;;12.82;;
21297;SDS011;10808;48.010;11.326;2024-03-08T10:31:09;19.23;;;13.00;;
21297;SDS011;10808;48.010;11.326;2024-03-08T10:33:35;16.52;;;12.52;;
21297;SDS011;10808;48.010;11.326;2024-03-08T10:36:03;18.48;;;13.50;;
21297;SDS011;10808;48.010;11.326;2024-03-08T10:38:33;16.95;;;12.77;;
21297;SDS011;10808;48.010;11.326;2024-03-08T10:41:05;17.07;;;12.40;;
21297;SDS011;10808;48.010;11.326;2024-03-08T10:46:52;18.27;;;13.10;;
21297;SDS011;10808;48.010;11.326;2024-03-08T10:49:43;18.70;;;13.18;;
21297;SDS011;10808;48.010;11.326;2024-03-08T10:52:29;18.40;;;13.48;;
21297;SDS011;10808;48.010;11.326;2024-03-08T10:54:56;17.63;;;13.27;;
21297;SDS011;10808;48.010;11.326;2024-03-08T10:57:23;16.75;;;12.50;;
21297;SDS011;10808;48.010;11.326;2024-03-08T10:59:49;17.35;;;12.57;;
21297;SDS011;10808;48.010;11.326;2024-03-08T11:02:16;17.23;;;12.25;;
21297;SDS011;10808;48.010;11.326;2024-03-08T11:04:47;16.47;;;12.10;;
21297;SDS011;10808;48.010;11.326;2024-03-08T11:07:15;15.45;;;11.70;;
21297;SDS011;10808;48.010;11.326;2024-03-08T11:09:47;15.63;;;11.23;;
21297;SDS011;10808;48.010;11.326;2024-03-08T11:12:24;17.65;;;12.20;;
21297;SDS011;10808;48.010;11.326;2024-03-08T11:15:01;18.35;;;12.35;;
21297;SDS011;10808;48.010;11.326;2024-03-08T11:20:08;16.70;;;11.77;;
21297;SDS011;10808;48.010;11.326;2024-03-08T11:22:53;16.92;;;11.95;;
21297;SDS011;10808;48.010;11.326;2024-03-08T11:25:30;17.42;;;12.38;;
21297;SDS011;10808;48.010;11.326;2024-03-08T11:28:12;14.10;;;11.00;;
21297;SDS011;10808;48.010;11.326;2024-03-08T11:30:47;15.27;;;11.50;;
21297;SDS011;10808;48.010;11.326;2024-03-08T11:33:30;17.23;;;11.77;;
21297;SDS011;10808;48.010;11.326;2024-03-08T11:38:45;15.52;;;11.40;;
21297;SDS011;10808;48.010;11.326;2024-03-08T11:41:17;14.70;;;11.65;;
21297;SDS011;10808;48.010;11.326;2024-03-08T11:43:47;14.63;;;11.10;;
21297;SDS011;10808;48.010;11.326;2024-03-08T11:46:14;15.23;;;11.30;;
21297;SDS011;10808;48.010;11.326;2024-03-08T11:48:42;17.05;;;12.00;;
21297;SDS011;10808;48.010;11.326;2024-03-08T11:51:13;16.20;;;11.73;;
21297;SDS011;10808;48.010;11.326;2024-03-08T11:53:41;16.13;;;12.27;;
21297;SDS011;10808;48.010;11.326;2024-03-08T11:56:07;16.10;;;12.05;;
21297;SDS011;10808;48.010;11.326;2024-03-08T11:58:34;13.95;;;10.75;;
21297;SDS011;10808;48.010;11.326;2024-03-08T12:01:05;15.30;;;11.20;;
21297;SDS011;10808;48.010;11.326;2024-03-08T12:03:33;14.52;;;11.07;;
21297;SDS011;10808;48.010;11.326;2024-03-08T12:05:59;16.65;;;11.57;;
21297;SDS011;10808;48.010;11.326;2024-03-08T12:08:27;14.50;;;10.57;;
21297;SDS011;10808;48.010;11.326;2024-03-08T12:10:56;15.70;;;11.45;;
21297;SDS011;10808;48.010;11.326;2024-03-08T12:13:26;15.10;;;11.17;;
21297;SDS011;10808;48.010;11.326;2024-03-08T12:15:58;14.57;;;11.13;;
21297;SDS011;10808;48.010;11.326;2024-03-08T12:18:27;17.15;;;11.63;;
21297;SDS011;10808;48.010;11.326;2024-03-08T12:21:06;15.77;;;11.77;;
21297;SDS011;10808;48.010;11.326;2024-03-08T12:23:36;16.27;;;11.40;;
21297;SDS011;10808;48.010;11.326;2024-03-08T12:26:18;18.00;;;12.20;;
21297;SDS011;10808;48.010;11.326;2024-03-08T12:28:49;15.70;;;11.27;;
21297;SDS011;10808;48.010;11.326;2024-03-08T12:31:18;15.88;;;11.10;;
21297;SDS011;10808;48.010;11.326;2024-03-08T12:33:50;19.85;;;11.85;;
21297;SDS011;10808;48.010;11.326;2024-03-08T12:36:18;16.40;;;11.35;;
21297;SDS011;10808;48.010;11.326;2024-03-08T12:38:45;15.85;;;11.45;;
21297;SDS011;10808;48.010;11.326;2024-03-08T12:41:15;15.45;;;11.13;;
21297;SDS011;10808;48.010;11.326;2024-03-08T12:43:43;14.18;;;10.80;;
21297;SDS011;10808;48.010;11.326;2024-03-08T12:46:18;14.90;;;11.10;;
21297;SDS011;10808;48.010;11.326;2024-03-08T12:48:51;15.13;;;10.55;;
21297;SDS011;10808;48.010;11.326;2024-03-08T12:51:19;15.77;;;10.80;;
21297;SDS011;10808;48.010;11.326;2024-03-08T12:53:46;15.30;;;10.23;;
21297;SDS011;10808;48.010;11.326;2024-03-08T12:56:13;14.63;;;10.30;;
21297;SDS011;10808;48.010;11.326;2024-03-08T12:58:41;16.90;;;10.53;;
21297;SDS011;10808;48.010;11.326;2024-03-08T13:01:10;13.90;;;10.80;;
21297;SDS011;10808;48.010;11.326;2024-03-08T13:03:37;15.10;;;11.00;;
21297;SDS011;10808;48.010;11.326;2024-03-08T13:06:04;14.82;;;10.68;;
21297;SDS011;10808;48.010;11.326;2024-03-08T13:08:37;15.02;;;11.40;;
21297;SDS011;10808;48.010;11.326;2024-03-08T13:11:05;15.50;;;11.68;;
21297;SDS011;10808;48.010;11.326;2024-03-08T13:13:36;14.82;;;11.20;;
21297;SDS011;10808;48.010;11.326;2024-03-08T13:16:05;15.43;;;11.68;;
21297;SDS011;10808;48.010;11.326;2024-03-08T13:18:37;16.27;;;11.23;;
21297;SDS011;10808;48.010;11.326;2024-03-08T13:21:03;14.57;;;11.15;;
21297;SDS011;10808;48.010;11.326;2024-03-08T13:23:33;14.97;;;11.20;;
21297;SDS011;10808;48.010;11.326;2024-03-08T13:26:09;16.08;;;12.27;;
21297;SDS011;10808;48.010;11.326;2024-03-08T13:28:42;16.08;;;12.25;;
21297;SDS011;10808;48.010;11.326;2024-03-08T13:31:09;17.67;;;11.88;;
21297;SDS011;10808;48.010;11.326;2024-03-08T13:33:36;15.45;;;11.02;;
21297;SDS011;10808;48.010;11.326;2024-03-08T13:36:07;15.55;;;11.35;;
21297;SDS011;10808;48.010;11.326;2024-03-08T13:38:43;16.88;;;11.35;;
21297;SDS011;10808;48.010;11.326;2024-03-08T13:41:10;17.97;;;11.53;;
21297;SDS011;10808;48.010;11.326;2024-03-08T13:43:37;17.73;;;12.93;;
21297;SDS011;10808;48.010;11.326;2024-03-08T13:46:05;15.15;;;12.18;;
21297;SDS011;10808;48.010;11.326;2024-03-08T13:48:35;16.35;;;11.93;;
21297;SDS011;10808;48.010;11.326;2024-03-08T13:51:03;16.45;;;11.75;;
21297;SDS011;10808;48.010;11.326;2024-03-08T13:53:31;16.45;;;12.07;;
21297;SDS011;10808;48.010;11.326;2024-03-08T13:55:58;14.55;;;11.05;;
21297;SDS011;10808;48.010;11.326;2024-03-08T13:58:25;16.45;;;11.18;;
21297;SDS011;10808;48.010;11.326;2024-03-08T14:00:52;15.55;;;11.05;;
21297;SDS011;10808;48.010;11.326;2024-03-08T14:03:18;15.63;;;11.60;;
21297;SDS011;10808;48.010;11.326;2024-03-08T14:05:44;15.32;;;11.85;;
21297;SDS011;10808;48.010;11.326;2024-03-08T14:08:11;20.33;;;13.98;;
21297;SDS011;10808;48.010;11.326;2024-03-08T14:10:40;16.73;;;12.23;;
21297;SDS011;10808;48.010;11.326;2024-03-08T14:13:07;16.90;;;12.32;;
21297;SDS011;10808;48.010;11.326;2024-03-08T14:15:34;16.25;;;11.88;;
21297;SDS011;10808;48.010;11.326;2024-03-08T14:18:01;17.02;;;13.27;;
21297;SDS011;10808;48.010;11.326;2024-03-08T14:20:27;17.35;;;12.90;;
21297;SDS011;10808;48.010;11.326;2024-03-08T14:22:53;16.20;;;12.68;;